PWSweather.com
Personal Weather Stations
Station Observations
MART18
Seleziona Stato..., MartinsicuroIT italia

Seleziona Stato...MartinsicuroIT italia

Lat: 42.885169, Lon: 13.918447300000025

Elevation: 3

Station Type: Davis vantage vp2

Latest ConditionsUpdated 3:19:22 PM GMT+01:01 Monday, Sep 24, 2018
Currently Today's Max Today's Min Today's Average
Temperature 66.0°F18.9°C 79.3°F26.3°C 64.0°F17.8°C 72.9°F22.7°C
Dew Point 56.3°F13.5°C 71.6°F22.0°C 56.1°F13.4°C 64.5°F18.1°C
Winds 12.1 mph N19.5 kmh N 25.1 mph -40.4 kmh - - 4.5 mph 7.2 kmh
Wind Gusts 23.9 mph38.5 kmh 38.0 mph61.2 kmh - -
Humidity 71% 82% 67% 75%
Pressure 30.14 in1020.7 mb 30.14 in1020.7 mb 29.81 in1009.5 mb -
Precipitation - 0.74 in18.8 mm - -
Hour Temp Dew Point Humidity Winds Wind Gusts Pressure Precip Precip Rate Daily Precip Total
03:19 PM 66.0°F18.9°C 56.3°F13.5°C 71% 12.1 mph N19.5 kmh N 23.9 mph38.5 kmh 30.14 in1020.7 mb 0.17 in4.3 mm 0.00 in0.0 mm 0.74 in18.8 mm
03:14 PM 65.7°F18.7°C 56.8°F13.8°C 73% 13.0 mph N20.9 kmh N 25.1 mph40.4 kmh 30.14 in1020.7 mb 0.17 in4.3 mm 0.00 in0.0 mm 0.74 in18.8 mm
03:09 PM 64.9°F18.3°C 56.1°F13.4°C 73% 13.0 mph NE20.9 kmh NE 23.0 mph37.0 kmh 30.13 in1020.3 mb 0.17 in4.3 mm 0.00 in0.0 mm 0.74 in18.8 mm
03:04 PM 64.8°F18.2°C 56.7°F13.7°C 75% 12.1 mph NNE19.5 kmh NNE 22.0 mph35.4 kmh 30.13 in1020.3 mb 0.17 in4.3 mm 0.00 in0.0 mm 0.74 in18.8 mm
02:59 PM 64.6°F18.1°C 57.2°F14.0°C 77% 11.0 mph ENE17.7 kmh ENE 19.9 mph32.0 kmh 30.12 in1020.0 mb 0.17 in4.3 mm 0.00 in0.0 mm 0.73 in18.5 mm
02:54 PM 64.0°F17.8°C 56.3°F13.5°C 76% 11.0 mph ESE17.7 kmh ESE 19.9 mph32.0 kmh 30.12 in1020.0 mb 0.19 in4.8 mm 0.00 in0.0 mm 0.73 in18.5 mm
02:49 PM 64.6°F18.1°C 57.6°F14.2°C 78% 10.1 mph NE16.3 kmh NE 16.1 mph25.9 kmh 30.12 in1020.0 mb 0.20 in5.1 mm 0.00 in0.0 mm 0.71 in18.0 mm
02:44 PM 64.9°F18.3°C 58.3°F14.6°C 79% 10.1 mph NE16.3 kmh NE 17.9 mph28.8 kmh 30.12 in1020.0 mb 0.27 in6.9 mm 0.00 in0.0 mm 0.71 in18.0 mm
02:39 PM 64.8°F18.2°C 58.1°F14.5°C 79% 11.0 mph NE17.7 kmh NE 19.9 mph32.0 kmh 30.11 in1019.6 mb 0.43 in10.9 mm 0.00 in0.0 mm 0.70 in17.8 mm
02:34 PM 65.1°F18.4°C 58.1°F14.5°C 78% 13.0 mph 20.9 kmh 21.9 mph35.2 kmh 30.11 in1019.6 mb 0.57 in14.5 mm 0.00 in0.0 mm 0.67 in17.0 mm
02:29 PM 65.7°F18.7°C 58.3°F14.6°C 77% 15.0 mph ENE24.1 kmh ENE 23.9 mph38.5 kmh 30.10 in1019.3 mb 0.57 in14.5 mm 0.24 in6.1 mm 0.63 in16.0 mm
02:24 PM 66.2°F19.0°C 58.1°F14.5°C 75% 16.1 mph NE25.9 kmh NE 28.0 mph45.1 kmh 30.09 in1019.0 mb 0.55 in14.0 mm 0.00 in0.0 mm 0.58 in14.7 mm
02:19 PM 66.7°F19.3°C 59.4°F15.2°C 77% 16.1 mph E25.9 kmh E 28.0 mph45.1 kmh 30.07 in1018.3 mb 0.57 in14.5 mm 0.00 in0.0 mm 0.57 in14.5 mm
02:14 PM 66.7°F19.3°C 59.0°F15.0°C 76% 21.0 mph NNE33.8 kmh NNE 28.0 mph45.1 kmh 30.06 in1017.9 mb 0.57 in14.5 mm 0.00 in0.0 mm 0.57 in14.5 mm
02:09 PM 66.6°F19.2°C 59.2°F15.1°C 77% 21.9 mph NE35.2 kmh NE 31.1 mph50.1 kmh 30.05 in1017.6 mb 0.57 in14.5 mm 0.00 in0.0 mm 0.57 in14.5 mm
02:04 PM 65.8°F18.8°C 59.2°F15.1°C 79% 21.9 mph E35.2 kmh E 32.0 mph51.5 kmh 30.04 in1017.3 mb 0.57 in14.5 mm 0.01 in0.3 mm 0.57 in14.5 mm
01:59 PM 65.8°F18.8°C 59.5°F15.3°C 80% 21.0 mph ENE33.8 kmh ENE 34.0 mph54.7 kmh 30.04 in1017.3 mb 0.56 in14.2 mm 0.24 in6.1 mm 0.57 in14.5 mm
01:54 PM 65.5°F18.6°C 59.5°F15.3°C 81% 21.0 mph NE33.8 kmh NE 34.9 mph56.2 kmh 30.03 in1016.9 mb 0.54 in13.7 mm 0.36 in9.1 mm 0.55 in14.0 mm
01:49 PM 65.8°F18.8°C 60.3°F15.7°C 82% 23.0 mph E37.0 kmh E 34.9 mph56.2 kmh 30.02 in1016.6 mb 0.51 in13.0 mm 0.84 in21.3 mm 0.52 in13.2 mm
01:44 PM 65.8°F18.8°C 59.9°F15.5°C 81% 21.9 mph E35.2 kmh E 36.9 mph59.4 kmh 30.02 in1016.6 mb 0.44 in11.2 mm 2.16 in54.9 mm 0.44 in11.2 mm
01:39 PM 65.8°F18.8°C 59.9°F15.5°C 81% 19.0 mph E30.6 kmh E 31.1 mph50.1 kmh 30.01 in1016.3 mb 0.26 in6.6 mm 2.04 in51.8 mm 0.30 in7.6 mm
01:34 PM 67.1°F19.5°C 61.2°F16.2°C 81% 19.0 mph E30.6 kmh E 31.1 mph50.1 kmh 30.02 in1016.6 mb 0.09 in2.3 mm 0.36 in9.1 mm 0.09 in2.3 mm
01:29 PM 67.3°F19.6°C 61.0°F16.1°C 80% 21.9 mph NE35.2 kmh NE 32.0 mph51.5 kmh 30.01 in1016.3 mb 0.06 in1.5 mm 0.36 in9.1 mm 0.06 in1.5 mm
01:24 PM 67.8°F19.9°C 61.0°F16.1°C 79% 23.0 mph E37.0 kmh E 32.0 mph51.5 kmh 30.00 in1015.9 mb 0.03 in0.8 mm 0.36 in9.1 mm 0.03 in0.8 mm
01:19 PM 68.2°F20.1°C 61.0°F16.1°C 78% 21.9 mph ESE35.2 kmh ESE 36.0 mph57.9 kmh 30.00 in1015.9 mb 0.00 in0.0 mm 0.00 in0.0 mm 0.01 in0.3 mm
01:14 PM 68.7°F20.4°C 61.9°F16.6°C 79% 23.0 mph NE37.0 kmh NE 34.9 mph56.2 kmh 29.99 in1015.6 mb 0.00 in0.0 mm 0.00 in0.0 mm 0.00 in0.0 mm
01:09 PM 69.3°F20.7°C 62.8°F17.1°C 80% 25.1 mph E40.4 kmh E 34.9 mph56.2 kmh 29.98 in1015.2 mb 0.00 in0.0 mm 0.00 in0.0 mm 0.00 in0.0 mm
01:04 PM 68.4°F20.2°C 61.5°F16.4°C 79% 25.1 mph E40.4 kmh E 36.0 mph57.9 kmh 29.99 in1015.6 mb 0.00 in0.0 mm 0.00 in0.0 mm 0.00 in0.0 mm
12:59 PM 68.4°F20.2°C 61.9°F16.6°C 80% 25.1 mph E40.4 kmh E 34.0 mph54.7 kmh 29.98 in1015.2 mb 0.00 in0.0 mm 0.00 in0.0 mm 0.00 in0.0 mm
12:54 PM 68.9°F20.5°C 62.8°F17.1°C 81% 23.0 mph ENE37.0 kmh ENE 38.0 mph61.2 kmh 29.98 in1015.2 mb 0.00 in0.0 mm 0.00 in0.0 mm 0.00 in0.0 mm
12:49 PM 70.2°F21.2°C 63.3°F17.4°C 79% 15.0 mph ENE24.1 kmh ENE 36.0 mph57.9 kmh 29.97 in1014.9 mb 0.00 in0.0 mm 0.00 in0.0 mm 0.00 in0.0 mm
12:44 PM 75.6°F24.2°C 66.4°F19.1°C 73% 6.9 mph NE11.1 kmh NE 25.9 mph41.7 kmh 29.98 in1015.2 mb 0.00 in0.0 mm 0.00 in0.0 mm 0.00 in0.0 mm
12:39 PM 78.1°F25.6°C 70.3°F21.3°C 77% 4.9 mph NNE7.9 kmh NNE 8.1 mph13.0 kmh 29.96 in1014.6 mb 0.00 in0.0 mm 0.00 in0.0 mm 0.00 in0.0 mm
12:34 PM 77.9°F25.5°C 70.2°F21.2°C 77% 4.0 mph NE6.4 kmh NE 8.1 mph13.0 kmh 29.95 in1014.2 mb 0.00 in0.0 mm 0.00 in0.0 mm 0.00 in0.0 mm
12:29 PM 78.1°F25.6°C 70.3°F21.3°C 77% 4.0 mph NNE6.4 kmh NNE 6.0 mph9.7 kmh 29.95 in1014.2 mb 0.00 in0.0 mm 0.00 in0.0 mm 0.00 in0.0 mm
12:24 PM 77.9°F25.5°C 70.2°F21.2°C 77% 4.0 mph NE6.4 kmh NE 7.0 mph11.3 kmh 29.94 in1013.9 mb 0.00 in0.0 mm 0.00 in0.0 mm 0.00 in0.0 mm
12:19 PM 78.1°F25.6°C 70.3°F21.3°C 77% 4.0 mph NNE6.4 kmh NNE 6.0 mph9.7 kmh 29.94 in1013.9 mb 0.00 in0.0 mm 0.00 in0.0 mm 0.00 in0.0 mm
12:14 PM 78.1°F25.6°C 70.3°F21.3°C 77% 4.9 mph N7.9 kmh N 8.1 mph13.0 kmh 29.94 in1013.9 mb 0.00 in0.0 mm 0.00 in0.0 mm 0.00 in0.0 mm
12:09 PM 78.3°F25.7°C 70.5°F21.4°C 77% 4.9 mph NNE7.9 kmh NNE 10.1 mph16.3 kmh 29.94 in1013.9 mb 0.00 in0.0 mm 0.00 in0.0 mm 0.00 in0.0 mm
12:04 PM 78.4°F25.8°C 71.1°F21.7°C 78% 2.9 mph N4.7 kmh N 8.1 mph13.0 kmh 29.94 in1013.9 mb 0.00 in0.0 mm 0.00 in0.0 mm 0.00 in0.0 mm
11:59 AM 78.4°F25.8°C 70.7°F21.5°C 77% 2.9 mph NE4.7 kmh NE 6.0 mph9.7 kmh 29.93 in1013.5 mb 0.00 in0.0 mm 0.00 in0.0 mm 0.00 in0.0 mm
11:54 AM 78.6°F25.9°C 71.2°F21.8°C 78% 4.0 mph N6.4 kmh N 6.9 mph11.1 kmh 29.93 in1013.5 mb 0.00 in0.0 mm 0.00 in0.0 mm 0.00 in0.0 mm
11:49 AM 78.6°F25.9°C 71.2°F21.8°C 78% 4.9 mph NE7.9 kmh NE 8.1 mph13.0 kmh 29.93 in1013.5 mb 0.00 in0.0 mm 0.00 in0.0 mm 0.00 in0.0 mm
11:44 AM 78.6°F25.9°C 70.9°F21.6°C 77% 4.9 mph NE7.9 kmh NE 8.9 mph14.3 kmh 29.93 in1013.5 mb 0.00 in0.0 mm 0.00 in0.0 mm 0.00 in0.0 mm
11:39 AM 78.8°F26.0°C 71.1°F21.7°C 77% 4.9 mph ENE7.9 kmh ENE 8.9 mph14.3 kmh 29.93 in1013.5 mb 0.00 in0.0 mm 0.00 in0.0 mm 0.00 in0.0 mm
11:34 AM 79.0°F26.1°C 71.1°F21.7°C 77% 4.9 mph NNE7.9 kmh NNE 8.9 mph14.3 kmh 29.93 in1013.5 mb 0.00 in0.0 mm 0.00 in0.0 mm 0.00 in0.0 mm
11:29 AM 79.0°F26.1°C 71.6°F22.0°C 78% 4.9 mph NE7.9 kmh NE 8.9 mph14.3 kmh 29.93 in1013.5 mb 0.00 in0.0 mm 0.00 in0.0 mm 0.00 in0.0 mm
11:24 AM 78.6°F25.9°C 71.2°F21.8°C 78% 4.0 mph NE6.4 kmh NE 9.0 mph14.5 kmh 29.93 in1013.5 mb 0.00 in0.0 mm 0.00 in0.0 mm 0.00 in0.0 mm
11:19 AM 78.3°F25.7°C 70.5°F21.4°C 77% 4.0 mph ENE6.4 kmh ENE 6.0 mph9.7 kmh 29.92 in1013.2 mb 0.00 in0.0 mm 0.00 in0.0 mm 0.00 in0.0 mm
11:14 AM 78.6°F25.9°C 70.9°F21.6°C 77% 2.9 mph NE4.7 kmh NE 6.0 mph9.7 kmh 29.92 in1013.2 mb 0.00 in0.0 mm 0.00 in0.0 mm 0.00 in0.0 mm
11:09 AM 78.4°F25.8°C 70.7°F21.5°C 77% 2.9 mph NE4.7 kmh NE 4.9 mph7.9 kmh 29.92 in1013.2 mb 0.00 in0.0 mm 0.00 in0.0 mm 0.00 in0.0 mm
11:04 AM 78.3°F25.7°C 70.5°F21.4°C 77% 2.9 mph NE4.7 kmh NE 4.9 mph7.9 kmh 29.92 in1013.2 mb 0.00 in0.0 mm 0.00 in0.0 mm 0.00 in0.0 mm
10:59 AM 78.3°F25.7°C 70.0°F21.1°C 76% 2.9 mph NE4.7 kmh NE 4.9 mph7.9 kmh 29.92 in1013.2 mb 0.00 in0.0 mm 0.00 in0.0 mm 0.00 in0.0 mm
10:54 AM 78.3°F25.7°C 70.0°F21.1°C 76% 2.9 mph NE4.7 kmh NE 4.9 mph7.9 kmh 29.92 in1013.2 mb 0.00 in0.0 mm 0.00 in0.0 mm 0.00 in0.0 mm
10:49 AM 78.3°F25.7°C 69.6°F20.9°C 75% 2.9 mph NE4.7 kmh NE 4.9 mph7.9 kmh 29.92 in1013.2 mb 0.00 in0.0 mm 0.00 in0.0 mm 0.00 in0.0 mm
10:44 AM 78.1°F25.6°C 69.1°F20.6°C 74% 2.9 mph NE4.7 kmh NE 5.0 mph8.0 kmh 29.92 in1013.2 mb 0.00 in0.0 mm 0.00 in0.0 mm 0.00 in0.0 mm
10:39 AM 78.1°F25.6°C 68.7°F20.4°C 73% 2.0 mph NNE3.2 kmh NNE 4.0 mph6.4 kmh 29.92 in1013.2 mb 0.00 in0.0 mm 0.00 in0.0 mm 0.00 in0.0 mm
10:34 AM 78.3°F25.7°C 68.9°F20.5°C 73% 0.9 mph ENE1.4 kmh ENE 4.0 mph6.4 kmh 29.92 in1013.2 mb 0.00 in0.0 mm 0.00 in0.0 mm 0.00 in0.0 mm
10:29 AM 78.6°F25.9°C 68.9°F20.5°C 72% Calm Calm 3.0 mph4.8 kmh 29.91 in1012.9 mb 0.00 in0.0 mm 0.00 in0.0 mm 0.00 in0.0 mm
10:24 AM 78.8°F26.0°C 69.1°F20.6°C 72% 0.9 mph SE1.4 kmh SE 0.9 mph1.4 kmh 29.91 in1012.9 mb 0.00 in0.0 mm 0.00 in0.0 mm 0.00 in0.0 mm
10:19 AM 78.6°F25.9°C 68.9°F20.5°C 72% 2.0 mph SE3.2 kmh SE 4.0 mph6.4 kmh 29.91 in1012.9 mb 0.00 in0.0 mm 0.00 in0.0 mm 0.00 in0.0 mm
10:14 AM 79.0°F26.1°C 69.3°F20.7°C 72% 2.0 mph SE3.2 kmh SE 4.9 mph7.9 kmh 29.91 in1012.9 mb 0.00 in0.0 mm 0.00 in0.0 mm 0.00 in0.0 mm
10:09 AM 79.0°F26.1°C 69.3°F20.7°C 72% 2.0 mph S3.2 kmh S 4.9 mph7.9 kmh 29.91 in1012.9 mb 0.00 in0.0 mm 0.00 in0.0 mm 0.00 in0.0 mm
10:04 AM 79.2°F26.2°C 69.8°F21.0°C 73% 2.0 mph S3.2 kmh S 4.9 mph7.9 kmh 29.90 in1012.5 mb 0.00 in0.0 mm 0.00 in0.0 mm 0.00 in0.0 mm
09:59 AM 79.2°F26.2°C 69.8°F21.0°C 73% 2.0 mph S3.2 kmh S 7.0 mph11.3 kmh 29.90 in1012.5 mb 0.00 in0.0 mm 0.00 in0.0 mm 0.00 in0.0 mm
09:54 AM 79.3°F26.3°C 70.3°F21.3°C 74% 0.9 mph SE1.4 kmh SE 6.0 mph9.7 kmh 29.90 in1012.5 mb 0.00 in0.0 mm 0.00 in0.0 mm 0.00 in0.0 mm
09:49 AM 79.2°F26.2°C 70.2°F21.2°C 74% 0.9 mph SSE1.4 kmh SSE 4.0 mph6.4 kmh 29.90 in1012.5 mb 0.00 in0.0 mm 0.00 in0.0 mm 0.00 in0.0 mm
09:44 AM 79.0°F26.1°C 70.0°F21.1°C 74% 0.9 mph S1.4 kmh S 6.0 mph9.7 kmh 29.90 in1012.5 mb 0.00 in0.0 mm 0.00 in0.0 mm 0.00 in0.0 mm
09:39 AM 78.8°F26.0°C 69.8°F21.0°C 74% 2.0 mph SSE3.2 kmh SSE 4.9 mph7.9 kmh 29.90 in1012.5 mb 0.00 in0.0 mm 0.00 in0.0 mm 0.00 in0.0 mm
09:34 AM 78.6°F25.9°C 70.0°F21.1°C 75% 2.9 mph S4.7 kmh S 6.9 mph11.1 kmh 29.90 in1012.5 mb 0.00 in0.0 mm 0.00 in0.0 mm 0.00 in0.0 mm
09:29 AM 78.4°F25.8°C 69.8°F21.0°C 75% 2.9 mph S4.7 kmh S 6.9 mph11.1 kmh 29.89 in1012.2 mb 0.00 in0.0 mm 0.00 in0.0 mm 0.00 in0.0 mm
09:24 AM 78.4°F25.8°C 70.2°F21.2°C 76% 2.0 mph S3.2 kmh S 6.0 mph9.7 kmh 29.89 in1012.2 mb 0.00 in0.0 mm 0.00 in0.0 mm 0.00 in0.0 mm
09:19 AM 78.3°F25.7°C 70.0°F21.1°C 76% 2.0 mph S3.2 kmh S 4.9 mph7.9 kmh 29.89 in1012.2 mb 0.00 in0.0 mm 0.00 in0.0 mm 0.00 in0.0 mm
09:14 AM 78.1°F25.6°C 70.0°F21.1°C 76% 2.0 mph S3.2 kmh S 6.0 mph9.7 kmh 29.89 in1012.2 mb 0.00 in0.0 mm 0.00 in0.0 mm 0.00 in0.0 mm
09:09 AM 78.1°F25.6°C 70.3°F21.3°C 77% 2.0 mph S3.2 kmh S 4.9 mph7.9 kmh 29.88 in1011.9 mb 0.00 in0.0 mm 0.00 in0.0 mm 0.00 in0.0 mm
09:04 AM 77.7°F25.4°C 70.0°F21.1°C 77% 2.0 mph SE3.2 kmh SE 4.0 mph6.4 kmh 29.88 in1011.9 mb 0.00 in0.0 mm 0.00 in0.0 mm 0.00 in0.0 mm
08:59 AM 77.7°F25.4°C 70.0°F21.1°C 77% 0.9 mph SSE1.4 kmh SSE 5.0 mph8.0 kmh 29.88 in1011.9 mb 0.00 in0.0 mm 0.00 in0.0 mm 0.00 in0.0 mm
08:54 AM 77.5°F25.3°C 69.8°F21.0°C 77% 2.0 mph S3.2 kmh S 4.0 mph6.4 kmh 29.88 in1011.9 mb 0.00 in0.0 mm 0.00 in0.0 mm 0.00 in0.0 mm
08:49 AM 77.5°F25.3°C 69.4°F20.8°C 76% 2.9 mph S4.7 kmh S 4.9 mph7.9 kmh 29.88 in1011.9 mb 0.00 in0.0 mm 0.00 in0.0 mm 0.00 in0.0 mm
08:44 AM 77.5°F25.3°C 69.4°F20.8°C 76% 2.9 mph S4.7 kmh S 6.0 mph9.7 kmh 29.88 in1011.9 mb 0.00 in0.0 mm 0.00 in0.0 mm 0.00 in0.0 mm
08:39 AM 77.5°F25.3°C 69.4°F20.8°C 76% 2.9 mph S4.7 kmh S 6.0 mph9.7 kmh 29.87 in1011.5 mb 0.00 in0.0 mm 0.00 in0.0 mm 0.00 in0.0 mm
08:34 AM 77.9°F25.5°C 69.3°F20.7°C 75% 2.9 mph S4.7 kmh S 7.0 mph11.3 kmh 29.87 in1011.5 mb 0.00 in0.0 mm 0.00 in0.0 mm 0.00 in0.0 mm
08:29 AM 78.3°F25.7°C 69.6°F20.9°C 75% 2.9 mph SSE4.7 kmh SSE 6.0 mph9.7 kmh 29.87 in1011.5 mb 0.00 in0.0 mm 0.00 in0.0 mm 0.00 in0.0 mm
08:24 AM 78.1°F25.6°C 69.4°F20.8°C 75% 2.9 mph S4.7 kmh S 6.0 mph9.7 kmh 29.86 in1011.2 mb 0.00 in0.0 mm 0.00 in0.0 mm 0.00 in0.0 mm
08:19 AM 78.1°F25.6°C 69.1°F20.6°C 74% 2.0 mph S3.2 kmh S 6.0 mph9.7 kmh 29.86 in1011.2 mb 0.00 in0.0 mm 0.00 in0.0 mm 0.00 in0.0 mm
08:14 AM 78.3°F25.7°C 69.3°F20.7°C 74% 2.0 mph SSW3.2 kmh SSW 4.9 mph7.9 kmh 29.86 in1011.2 mb 0.00 in0.0 mm 0.00 in0.0 mm 0.00 in0.0 mm
08:09 AM 78.3°F25.7°C 69.3°F20.7°C 74% 2.9 mph SSW4.7 kmh SSW 6.0 mph9.7 kmh 29.86 in1011.2 mb 0.00 in0.0 mm 0.00 in0.0 mm 0.00 in0.0 mm
08:03 AM 77.9°F25.5°C 68.5°F20.3°C 73% 4.0 mph S6.4 kmh S 7.0 mph11.3 kmh 29.86 in1011.2 mb 0.00 in0.0 mm 0.00 in0.0 mm 0.00 in0.0 mm
07:58 AM 77.5°F25.3°C 68.2°F20.1°C 73% 2.9 mph S4.7 kmh S 6.0 mph9.7 kmh 29.85 in1010.8 mb 0.00 in0.0 mm 0.00 in0.0 mm 0.00 in0.0 mm
07:53 AM 77.5°F25.3°C 67.8°F19.9°C 72% 2.9 mph SW4.7 kmh SW 6.0 mph9.7 kmh 29.85 in1010.8 mb 0.00 in0.0 mm 0.00 in0.0 mm 0.00 in0.0 mm
07:48 AM 77.4°F25.2°C 67.6°F19.8°C 72% 2.0 mph S3.2 kmh S 4.9 mph7.9 kmh 29.85 in1010.8 mb 0.00 in0.0 mm 0.00 in0.0 mm 0.00 in0.0 mm
07:43 AM 76.8°F24.9°C 66.2°F19.0°C 70% 2.0 mph SW3.2 kmh SW 5.0 mph8.0 kmh 29.85 in1010.8 mb 0.00 in0.0 mm 0.00 in0.0 mm 0.00 in0.0 mm
07:38 AM 76.6°F24.8°C 65.3°F18.5°C 68% 2.0 mph SSW3.2 kmh SSW 4.0 mph6.4 kmh 29.85 in1010.8 mb 0.00 in0.0 mm 0.00 in0.0 mm 0.00 in0.0 mm
07:33 AM 76.5°F24.7°C 64.8°F18.2°C 67% 0.9 mph SSW1.4 kmh SSW 4.0 mph6.4 kmh 29.85 in1010.8 mb 0.00 in0.0 mm 0.00 in0.0 mm 0.00 in0.0 mm
07:28 AM 75.9°F24.4°C 64.2°F17.9°C 67% Calm Calm 2.9 mph4.7 kmh 29.85 in1010.8 mb 0.00 in0.0 mm 0.00 in0.0 mm 0.00 in0.0 mm
07:23 AM 75.4°F24.1°C 64.0°F17.8°C 68% Calm Calm 0.9 mph1.4 kmh 29.85 in1010.8 mb 0.00 in0.0 mm 0.00 in0.0 mm 0.00 in0.0 mm
07:18 AM 74.8°F23.8°C 63.5°F17.5°C 68% Calm Calm 2.0 mph3.2 kmh 29.85 in1010.8 mb 0.00 in0.0 mm 0.00 in0.0 mm 0.00 in0.0 mm
07:13 AM 74.5°F23.6°C 63.1°F17.3°C 68% Calm Calm 0.9 mph1.4 kmh 29.84 in1010.5 mb 0.00 in0.0 mm 0.00 in0.0 mm 0.00 in0.0 mm
07:08 AM 74.1°F23.4°C 63.0°F17.2°C 68% 0.9 mph SSW1.4 kmh SSW 2.0 mph3.2 kmh 29.84 in1010.5 mb 0.00 in0.0 mm 0.00 in0.0 mm 0.00 in0.0 mm
07:03 AM 73.6°F23.1°C 62.8°F17.1°C 69% 2.0 mph SSW3.2 kmh SSW 4.9 mph7.9 kmh 29.84 in1010.5 mb 0.00 in0.0 mm 0.00 in0.0 mm 0.00 in0.0 mm
06:58 AM 73.4°F23.0°C 62.6°F17.0°C 69% 4.0 mph S6.4 kmh S 6.0 mph9.7 kmh 29.84 in1010.5 mb 0.00 in0.0 mm 0.00 in0.0 mm 0.00 in0.0 mm
06:53 AM 73.0°F22.8°C 61.9°F16.6°C 68% 4.9 mph SW7.9 kmh SW 8.9 mph14.3 kmh 29.84 in1010.5 mb 0.00 in0.0 mm 0.00 in0.0 mm 0.00 in0.0 mm
06:48 AM 72.9°F22.7°C 61.7°F16.5°C 68% 4.9 mph WSW7.9 kmh WSW 8.1 mph13.0 kmh 29.84 in1010.5 mb 0.00 in0.0 mm 0.00 in0.0 mm 0.00 in0.0 mm
06:43 AM 72.3°F22.4°C 61.2°F16.2°C 68% 4.0 mph WSW6.4 kmh WSW 8.1 mph13.0 kmh 29.85 in1010.8 mb 0.00 in0.0 mm 0.00 in0.0 mm 0.00 in0.0 mm
06:38 AM 72.0°F22.2°C 60.8°F16.0°C 68% 4.0 mph SW6.4 kmh SW 8.1 mph13.0 kmh 29.85 in1010.8 mb 0.00 in0.0 mm 0.00 in0.0 mm 0.00 in0.0 mm
06:33 AM 71.6°F22.0°C 60.8°F16.0°C 69% 4.9 mph SW7.9 kmh SW 6.9 mph11.1 kmh 29.85 in1010.8 mb 0.00 in0.0 mm 0.00 in0.0 mm 0.00 in0.0 mm
06:28 AM 70.9°F21.6°C 60.6°F15.9°C 70% 4.0 mph SW6.4 kmh SW 9.0 mph14.5 kmh 29.84 in1010.5 mb 0.00 in0.0 mm 0.00 in0.0 mm 0.00 in0.0 mm
06:23 AM 70.5°F21.4°C 60.6°F15.9°C 71% 2.9 mph SSW4.7 kmh SSW 4.9 mph7.9 kmh 29.84 in1010.5 mb 0.00 in0.0 mm 0.00 in0.0 mm 0.00 in0.0 mm
06:18 AM 70.5°F21.4°C 60.6°F15.9°C 71% 2.0 mph SW3.2 kmh SW 4.0 mph6.4 kmh 29.85 in1010.8 mb 0.00 in0.0 mm 0.00 in0.0 mm 0.00 in0.0 mm
06:13 AM 70.7°F21.5°C 60.4°F15.8°C 70% 2.9 mph S4.7 kmh S 4.9 mph7.9 kmh 29.84 in1010.5 mb 0.00 in0.0 mm 0.00 in0.0 mm 0.00 in0.0 mm
06:08 AM 71.1°F21.7°C 60.4°F15.8°C 69% 2.0 mph S3.2 kmh S 4.9 mph7.9 kmh 29.84 in1010.5 mb 0.00 in0.0 mm 0.00 in0.0 mm 0.00 in0.0 mm
06:03 AM 71.2°F21.8°C 60.6°F15.9°C 69% 0.9 mph SW1.4 kmh SW 4.9 mph7.9 kmh 29.84 in1010.5 mb 0.00 in0.0 mm 0.00 in0.0 mm 0.00 in0.0 mm
05:58 AM 71.1°F21.7°C 60.4°F15.8°C 69% 0.9 mph NW1.4 kmh NW 2.9 mph4.7 kmh 29.83 in1010.2 mb 0.00 in0.0 mm 0.00 in0.0 mm 0.00 in0.0 mm
05:53 AM 71.1°F21.7°C 60.4°F15.8°C 69% Calm Calm 3.0 mph4.8 kmh 29.83 in1010.2 mb 0.00 in0.0 mm 0.00 in0.0 mm 0.00 in0.0 mm
05:48 AM 71.1°F21.7°C 60.8°F16.0°C 70% 0.9 mph WNW1.4 kmh WNW 0.9 mph1.4 kmh 29.84 in1010.5 mb 0.00 in0.0 mm 0.00 in0.0 mm 0.00 in0.0 mm
05:43 AM 70.9°F21.6°C 60.6°F15.9°C 70% 0.9 mph WNW1.4 kmh WNW 2.0 mph3.2 kmh 29.84 in1010.5 mb 0.00 in0.0 mm 0.00 in0.0 mm 0.00 in0.0 mm
05:38 AM 70.5°F21.4°C 60.6°F15.9°C 71% 0.9 mph WNW1.4 kmh WNW 4.0 mph6.4 kmh 29.83 in1010.2 mb 0.00 in0.0 mm 0.00 in0.0 mm 0.00 in0.0 mm
05:33 AM 70.3°F21.3°C 60.8°F16.0°C 72% Calm Calm 2.9 mph4.7 kmh 29.84 in1010.5 mb 0.00 in0.0 mm 0.00 in0.0 mm 0.00 in0.0 mm
05:28 AM 70.2°F21.2°C 61.2°F16.2°C 73% Calm Calm 2.0 mph3.2 kmh 29.83 in1010.2 mb 0.00 in0.0 mm 0.00 in0.0 mm 0.00 in0.0 mm
05:23 AM 70.0°F21.1°C 61.3°F16.3°C 74% 0.9 mph WSW1.4 kmh WSW 0.9 mph1.4 kmh 29.84 in1010.5 mb 0.00 in0.0 mm 0.00 in0.0 mm 0.00 in0.0 mm
05:18 AM 70.0°F21.1°C 61.7°F16.5°C 75% 0.9 mph WSW1.4 kmh WSW 2.9 mph4.7 kmh 29.84 in1010.5 mb 0.00 in0.0 mm 0.00 in0.0 mm 0.00 in0.0 mm
05:13 AM 69.6°F20.9°C 61.3°F16.3°C 75% 2.0 mph WSW3.2 kmh WSW 4.0 mph6.4 kmh 29.84 in1010.5 mb 0.00 in0.0 mm 0.00 in0.0 mm 0.00 in0.0 mm
05:08 AM 69.6°F20.9°C 61.7°F16.5°C 76% 2.0 mph W3.2 kmh W 4.0 mph6.4 kmh 29.84 in1010.5 mb 0.00 in0.0 mm 0.00 in0.0 mm 0.00 in0.0 mm
05:03 AM 70.2°F21.2°C 62.2°F16.8°C 76% 0.9 mph WNW1.4 kmh WNW 5.0 mph8.0 kmh 29.84 in1010.5 mb 0.00 in0.0 mm 0.00 in0.0 mm 0.00 in0.0 mm
04:58 AM 70.7°F21.5°C 63.1°F17.3°C 77% 0.9 mph N1.4 kmh N 2.9 mph4.7 kmh 29.84 in1010.5 mb 0.00 in0.0 mm 0.00 in0.0 mm 0.00 in0.0 mm
04:53 AM 70.7°F21.5°C 63.5°F17.5°C 78% 0.9 mph NW1.4 kmh NW 2.9 mph4.7 kmh 29.84 in1010.5 mb 0.00 in0.0 mm 0.00 in0.0 mm 0.00 in0.0 mm
04:48 AM 70.3°F21.3°C 63.1°F17.3°C 78% 0.9 mph WSW1.4 kmh WSW 2.9 mph4.7 kmh 29.84 in1010.5 mb 0.00 in0.0 mm 0.00 in0.0 mm 0.00 in0.0 mm
04:43 AM 70.2°F21.2°C 63.0°F17.2°C 78% 0.9 mph WSW1.4 kmh WSW 2.0 mph3.2 kmh 29.84 in1010.5 mb 0.00 in0.0 mm 0.00 in0.0 mm 0.00 in0.0 mm
04:38 AM 70.2°F21.2°C 63.0°F17.2°C 78% 0.9 mph WSW1.4 kmh WSW 4.0 mph6.4 kmh 29.83 in1010.2 mb 0.00 in0.0 mm 0.00 in0.0 mm 0.00 in0.0 mm
04:33 AM 70.2°F21.2°C 62.6°F17.0°C 77% 0.9 mph WSW1.4 kmh WSW 2.0 mph3.2 kmh 29.83 in1010.2 mb 0.00 in0.0 mm 0.00 in0.0 mm 0.00 in0.0 mm
04:28 AM 70.3°F21.3°C 62.8°F17.1°C 77% 0.9 mph WSW1.4 kmh WSW 2.9 mph4.7 kmh 29.83 in1010.2 mb 0.00 in0.0 mm 0.00 in0.0 mm 0.00 in0.0 mm
04:23 AM 70.3°F21.3°C 62.8°F17.1°C 77% 0.9 mph SW1.4 kmh SW 4.0 mph6.4 kmh 29.83 in1010.2 mb 0.00 in0.0 mm 0.00 in0.0 mm 0.00 in0.0 mm
04:18 AM 70.2°F21.2°C 62.2°F16.8°C 76% Calm Calm 2.0 mph3.2 kmh 29.83 in1010.2 mb 0.00 in0.0 mm 0.00 in0.0 mm 0.00 in0.0 mm
04:13 AM 70.3°F21.3°C 62.4°F16.9°C 76% Calm Calm 3.0 mph4.8 kmh 29.83 in1010.2 mb 0.00 in0.0 mm 0.00 in0.0 mm 0.00 in0.0 mm
04:08 AM 70.3°F21.3°C 62.4°F16.9°C 76% Calm Calm 0.9 mph1.4 kmh 29.83 in1010.2 mb 0.00 in0.0 mm 0.00 in0.0 mm 0.00 in0.0 mm
04:03 AM 70.5°F21.4°C 62.6°F17.0°C 76% Calm Calm 2.0 mph3.2 kmh 29.83 in1010.2 mb 0.00 in0.0 mm 0.00 in0.0 mm 0.00 in0.0 mm
03:58 AM 70.9°F21.6°C 62.6°F17.0°C 75% Calm Calm 2.0 mph3.2 kmh 29.83 in1010.2 mb 0.00 in0.0 mm 0.00 in0.0 mm 0.00 in0.0 mm
03:53 AM 70.9°F21.6°C 62.6°F17.0°C 75% Calm Calm 2.0 mph3.2 kmh 29.83 in1010.2 mb 0.00 in0.0 mm 0.00 in0.0 mm 0.00 in0.0 mm
03:48 AM 70.9°F21.6°C 62.6°F17.0°C 75% 0.9 mph SW1.4 kmh SW 2.0 mph3.2 kmh 29.82 in1009.8 mb 0.00 in0.0 mm 0.00 in0.0 mm 0.00 in0.0 mm
03:43 AM 70.9°F21.6°C 62.6°F17.0°C 75% 0.9 mph SW1.4 kmh SW 2.9 mph4.7 kmh 29.82 in1009.8 mb 0.00 in0.0 mm 0.00 in0.0 mm 0.00 in0.0 mm
03:38 AM 70.9°F21.6°C 62.6°F17.0°C 75% Calm Calm 2.0 mph3.2 kmh 29.82 in1009.8 mb 0.00 in0.0 mm 0.00 in0.0 mm 0.00 in0.0 mm
03:33 AM 70.9°F21.6°C 62.6°F17.0°C 75% Calm Calm 2.0 mph3.2 kmh 29.82 in1009.8 mb 0.00 in0.0 mm 0.00 in0.0 mm 0.00 in0.0 mm
03:28 AM 70.7°F21.5°C 62.4°F16.9°C 75% 0.9 mph SW1.4 kmh SW 2.0 mph3.2 kmh 29.81 in1009.5 mb 0.00 in0.0 mm 0.00 in0.0 mm 0.00 in0.0 mm
03:23 AM 70.3°F21.3°C 61.7°F16.5°C 74% 2.0 mph SW3.2 kmh SW 2.9 mph4.7 kmh 29.81 in1009.5 mb 0.00 in0.0 mm 0.00 in0.0 mm 0.00 in0.0 mm
03:18 AM 70.3°F21.3°C 61.3°F16.3°C 73% 0.9 mph SW1.4 kmh SW 2.9 mph4.7 kmh 29.81 in1009.5 mb 0.00 in0.0 mm 0.00 in0.0 mm 0.00 in0.0 mm
03:13 AM 70.5°F21.4°C 61.9°F16.6°C 74% 0.9 mph SW1.4 kmh SW 2.0 mph3.2 kmh 29.81 in1009.5 mb 0.00 in0.0 mm 0.00 in0.0 mm 0.00 in0.0 mm
03:08 AM 70.3°F21.3°C 61.3°F16.3°C 73% Calm Calm 2.0 mph3.2 kmh 29.81 in1009.5 mb 0.00 in0.0 mm 0.00 in0.0 mm 0.00 in0.0 mm
03:03 AM 70.3°F21.3°C 61.3°F16.3°C 73% 0.9 mph SW1.4 kmh SW 2.0 mph3.2 kmh 29.81 in1009.5 mb 0.00 in0.0 mm 0.00 in0.0 mm 0.00 in0.0 mm
02:58 AM 70.5°F21.4°C 61.5°F16.4°C 73% 0.9 mph SW1.4 kmh SW 5.0 mph8.0 kmh 29.81 in1009.5 mb 0.00 in0.0 mm 0.00 in0.0 mm 0.00 in0.0 mm
02:53 AM 71.1°F21.7°C 61.9°F16.6°C 73% 0.9 mph SW1.4 kmh SW 5.0 mph8.0 kmh 29.81 in1009.5 mb 0.00 in0.0 mm 0.00 in0.0 mm 0.00 in0.0 mm
02:48 AM 71.1°F21.7°C 61.9°F16.6°C 73% 0.9 mph SW1.4 kmh SW 2.0 mph3.2 kmh 29.82 in1009.8 mb 0.00 in0.0 mm 0.00 in0.0 mm 0.00 in0.0 mm
02:43 AM 70.9°F21.6°C 62.2°F16.8°C 74% 0.9 mph SW1.4 kmh SW 2.9 mph4.7 kmh 29.83 in1010.2 mb 0.00 in0.0 mm 0.00 in0.0 mm 0.00 in0.0 mm
02:38 AM 70.7°F21.5°C 62.1°F16.7°C 74% 2.0 mph SW3.2 kmh SW 2.9 mph4.7 kmh 29.82 in1009.8 mb 0.00 in0.0 mm 0.00 in0.0 mm 0.00 in0.0 mm
02:33 AM 70.9°F21.6°C 62.2°F16.8°C 74% 0.9 mph SW1.4 kmh SW 4.0 mph6.4 kmh 29.83 in1010.2 mb 0.00 in0.0 mm 0.00 in0.0 mm 0.00 in0.0 mm
02:28 AM 71.1°F21.7°C 62.4°F16.9°C 74% 2.0 mph SW3.2 kmh SW 4.0 mph6.4 kmh 29.83 in1010.2 mb 0.00 in0.0 mm 0.00 in0.0 mm 0.00 in0.0 mm
02:23 AM 71.1°F21.7°C 62.4°F16.9°C 74% 0.9 mph SW1.4 kmh SW 4.0 mph6.4 kmh 29.83 in1010.2 mb 0.00 in0.0 mm 0.00 in0.0 mm 0.00 in0.0 mm
02:18 AM 71.6°F22.0°C 63.3°F17.4°C 75% 0.9 mph SW1.4 kmh SW 2.9 mph4.7 kmh 29.83 in1010.2 mb 0.00 in0.0 mm 0.00 in0.0 mm 0.00 in0.0 mm
02:13 AM 71.8°F22.1°C 63.5°F17.5°C 75% 0.9 mph SW1.4 kmh SW 4.0 mph6.4 kmh 29.83 in1010.2 mb 0.00 in0.0 mm 0.00 in0.0 mm 0.00 in0.0 mm
02:08 AM 71.8°F22.1°C 63.5°F17.5°C 75% Calm Calm -- 29.83 in1010.2 mb 0.00 in0.0 mm 0.00 in0.0 mm 0.00 in0.0 mm
02:03 AM 71.6°F22.0°C 63.7°F17.6°C 76% Calm Calm 0.9 mph1.4 kmh 29.84 in1010.5 mb 0.00 in0.0 mm 0.00 in0.0 mm 0.00 in0.0 mm
01:58 AM 71.4°F21.9°C 63.5°F17.5°C 76% 0.9 mph SW1.4 kmh SW 0.9 mph1.4 kmh 29.83 in1010.2 mb 0.00 in0.0 mm 0.00 in0.0 mm 0.00 in0.0 mm
01:53 AM 71.4°F21.9°C 63.9°F17.7°C 77% 0.9 mph SW1.4 kmh SW 4.0 mph6.4 kmh 29.84 in1010.5 mb 0.00 in0.0 mm 0.00 in0.0 mm 0.00 in0.0 mm
01:48 AM 71.4°F21.9°C 63.9°F17.7°C 77% Calm Calm 2.0 mph3.2 kmh 29.84 in1010.5 mb 0.00 in0.0 mm 0.00 in0.0 mm 0.00 in0.0 mm
01:43 AM 71.4°F21.9°C 64.2°F17.9°C 78% 0.9 mph NNW1.4 kmh NNW 2.0 mph3.2 kmh 29.84 in1010.5 mb 0.00 in0.0 mm 0.00 in0.0 mm 0.00 in0.0 mm
01:38 AM 71.6°F22.0°C 64.4°F18.0°C 78% 0.9 mph NNW1.4 kmh NNW 2.0 mph3.2 kmh 29.84 in1010.5 mb 0.00 in0.0 mm 0.00 in0.0 mm 0.00 in0.0 mm
01:33 AM 71.6°F22.0°C 64.4°F18.0°C 78% 0.9 mph NNW1.4 kmh NNW 2.0 mph3.2 kmh 29.84 in1010.5 mb 0.00 in0.0 mm 0.00 in0.0 mm 0.00 in0.0 mm
01:28 AM 71.6°F22.0°C 64.4°F18.0°C 78% Calm Calm 4.0 mph6.4 kmh 29.85 in1010.8 mb 0.00 in0.0 mm 0.00 in0.0 mm 0.00 in0.0 mm
01:23 AM 71.6°F22.0°C 64.4°F18.0°C 78% Calm Calm 2.9 mph4.7 kmh 29.85 in1010.8 mb 0.00 in0.0 mm 0.00 in0.0 mm 0.00 in0.0 mm
01:18 AM 71.8°F22.1°C 64.6°F18.1°C 78% Calm Calm 0.9 mph1.4 kmh 29.85 in1010.8 mb 0.00 in0.0 mm 0.00 in0.0 mm 0.00 in0.0 mm
01:13 AM 71.8°F22.1°C 64.2°F17.9°C 77% Calm Calm 0.9 mph1.4 kmh 29.84 in1010.5 mb 0.00 in0.0 mm 0.00 in0.0 mm 0.00 in0.0 mm
01:08 AM 72.1°F22.3°C 64.6°F18.1°C 77% 0.9 mph W1.4 kmh W 2.0 mph3.2 kmh 29.85 in1010.8 mb 0.00 in0.0 mm 0.00 in0.0 mm 0.00 in0.0 mm
01:03 AM 72.3°F22.4°C 64.8°F18.2°C 77% Calm Calm 2.9 mph4.7 kmh 29.84 in1010.5 mb 0.00 in0.0 mm 0.00 in0.0 mm 0.00 in0.0 mm
12:58 AM 72.9°F22.7°C 65.3°F18.5°C 77% Calm Calm -- 29.84 in1010.5 mb 0.00 in0.0 mm 0.00 in0.0 mm 0.00 in0.0 mm
12:53 AM 73.0°F22.8°C 65.5°F18.6°C 77% 0.9 mph NE1.4 kmh NE 2.9 mph4.7 kmh 29.85 in1010.8 mb 0.00 in0.0 mm 0.00 in0.0 mm 0.00 in0.0 mm
12:48 AM 72.9°F22.7°C 65.3°F18.5°C 77% 0.9 mph NE1.4 kmh NE 3.0 mph4.8 kmh 29.85 in1010.8 mb 0.00 in0.0 mm 0.00 in0.0 mm 0.00 in0.0 mm
12:43 AM 72.1°F22.3°C 64.2°F17.9°C 76% Calm Calm 0.9 mph1.4 kmh 29.85 in1010.8 mb 0.00 in0.0 mm 0.00 in0.0 mm 0.00 in0.0 mm
12:38 AM 71.8°F22.1°C 64.2°F17.9°C 77% Calm Calm 0.9 mph1.4 kmh 29.85 in1010.8 mb 0.00 in0.0 mm 0.00 in0.0 mm 0.00 in0.0 mm
12:33 AM 71.8°F22.1°C 64.6°F18.1°C 78% Calm Calm 3.0 mph4.8 kmh 29.85 in1010.8 mb 0.00 in0.0 mm 0.00 in0.0 mm 0.00 in0.0 mm
12:28 AM 71.4°F21.9°C 64.6°F18.1°C 79% 0.9 mph W1.4 kmh W 0.9 mph1.4 kmh 29.85 in1010.8 mb 0.00 in0.0 mm 0.00 in0.0 mm 0.00 in0.0 mm
12:23 AM 71.2°F21.8°C 64.8°F18.2°C 80% 0.9 mph W1.4 kmh W 6.0 mph9.7 kmh 29.85 in1010.8 mb 0.00 in0.0 mm 0.00 in0.0 mm 0.00 in0.0 mm
12:18 AM 71.2°F21.8°C 64.8°F18.2°C 80% 2.0 mph NW3.2 kmh NW 4.0 mph6.4 kmh 29.86 in1011.2 mb 0.00 in0.0 mm 0.00 in0.0 mm 0.00 in0.0 mm
12:13 AM 71.8°F22.1°C 64.9°F18.3°C 79% 2.0 mph N3.2 kmh N 4.9 mph7.9 kmh 29.86 in1011.2 mb 0.00 in0.0 mm 0.00 in0.0 mm 0.00 in0.0 mm
12:08 AM 72.1°F22.3°C 65.3°F18.5°C 79% 2.0 mph 3.2 kmh 4.0 mph6.4 kmh 29.86 in1011.2 mb 0.00 in0.0 mm 0.00 in0.0 mm 0.00 in0.0 mm
12:03 AM 72.3°F22.4°C 65.1°F18.4°C 78% 0.9 mph 1.4 kmh 2.9 mph4.7 kmh 29.86 in1011.2 mb 0.00 in0.0 mm 0.00 in0.0 mm 0.00 in0.0 mm